Time;durP1;ratioP1;P1;durP2;ratioP2;P2;SDS_P1;SDS_P2;PMS_P1;PMS_P2;Temp;Humidity;BMP_temperature;BMP_pressure;BME280_temperature;BME280_humidity;BME280_pressure;Samples;Min_cycle;Max_cycle;Signal;HPM_P1;HPM_P2
2022/06/17 00:03:34;;;;;;;4.17;1.30;;;;;;;15.35;62.41;101174.69;5242537;56;1138951;-72
2022/06/17 00:08:44;;;;;;;2.63;1.60;;;;;;;15.27;62.57;101178.03;5242568;56;1139029;-73
2022/06/17 00:13:50;;;;;;;1.97;1.30;;;;;;;15.13;62.41;101178.35;5241971;56;1139281;-74
2022/06/17 00:18:56;;;;;;;9.68;1.22;;;;;;;15.17;62.60;101178.45;5242058;56;1139118;-72
2022/06/17 00:24:15;;;;;;;2.77;1.67;;;;;;;15.20;62.43;101178.20;5242107;56;1138922;-72
2022/06/17 00:29:24;;;;;;;2.80;1.07;;;;;;;15.32;62.45;101181.61;5215075;56;1138962;-74
2022/06/17 00:34:30;;;;;;;0.97;0.87;;;;;;;15.29;61.92;101175.20;5172264;56;1138970;-74
2022/06/17 00:39:36;;;;;;;1.17;1.00;;;;;;;15.19;61.79;101182.32;5233231;56;1139076;-74
2022/06/17 00:44:50;;;;;;;1.33;0.90;;;;;;;15.04;61.93;101182.66;5220443;56;1139102;-73
2022/06/17 00:50:01;;;;;;;;;;;;;;;14.97;62.17;101184.16;5209467;57;1139293;-72
2022/06/17 00:55:42;;;;;;;3.90;1.10;;;;;;;14.96;62.46;101185.16;5005121;58;976207;-72
2022/06/17 01:00:53;;;;;;;1.20;0.90;;;;;;;15.22;63.36;101178.06;5064068;57;1136865;-73
2022/06/17 01:06:15;;;;;;;2.20;0.90;;;;;;;15.48;63.05;101183.30;5065536;57;1138989;-73
2022/06/17 01:11:25;;;;;;;2.60;2.27;;;;;;;15.64;62.56;101180.16;5063758;57;1138938;-74
2022/06/17 01:16:34;;;;;;;2.03;1.50;;;;;;;15.70;62.06;101176.47;5066154;57;1137124;-72
2022/06/17 01:22:07;;;;;;;2.37;1.30;;;;;;;15.55;62.03;101182.28;5065650;57;1137115;-73
2022/06/17 01:27:16;;;;;;;8.23;1.20;;;;;;;15.34;62.10;101176.99;5114243;56;1136793;-72
2022/06/17 01:32:27;;;;;;;1.67;1.57;;;;;;;15.32;63.00;101182.45;4992889;58;1137071;-73
2022/06/17 01:37:33;;;;;;;1.60;1.13;;;;;;;15.42;63.71;101179.36;4979247;59;1136960;-73
2022/06/17 01:42:40;;;;;;;4.20;1.40;;;;;;;15.43;63.88;101179.69;5166327;56;1136912;-73
2022/06/17 01:47:47;;;;;;;2.73;1.10;;;;;;;15.48;63.93;101173.47;5293435;55;1137142;-74
2022/06/17 01:53:06;;;;;;;3.17;1.30;;;;;;;15.45;64.01;101175.56;5258663;55;1137349;-73
2022/06/17 01:58:24;;;;;;;2.97;0.87;;;;;;;15.31;63.79;101173.26;5131459;57;1134769;-73
2022/06/17 02:03:45;;;;;;;1.13;1.10;;;;;;;15.14;64.22;101169.39;5034785;58;1138863;-73
2022/06/17 02:08:52;;;;;;;2.87;0.77;;;;;;;14.96;64.68;101172.33;4955780;59;1139059;-71
2022/06/17 02:14:06;;;;;;;1.30;1.20;;;;;;;14.66;65.04;101182.43;5061731;58;1138944;-73
2022/06/17 02:19:08;;;;;;;1.43;1.10;;;;;;;14.52;65.67;101178.23;5012150;58;1138981;-72
2022/06/17 02:24:15;;;;;;;1.83;1.20;;;;;;;14.56;66.34;101186.33;5099050;58;1139118;-72
2022/06/17 02:29:23;;;;;;;1.92;0.98;;;;;;;14.59;66.71;101190.56;5024243;58;1139134;-71
2022/06/17 02:34:30;;;;;;;1.20;1.10;;;;;;;14.54;66.61;101192.27;5034095;58;1138937;-72
2022/06/17 02:39:40;;;;;;;1.30;1.00;;;;;;;14.35;66.81;101190.77;5121025;56;1138995;-73
2022/06/17 02:44:51;;;;;;;2.40;1.27;;;;;;;14.17;67.42;101182.96;5171090;56;1139436;-72
2022/06/17 02:49:58;;;;;;;3.27;1.50;;;;;;;14.04;67.90;101186.63;5093351;57;1139114;-72
2022/06/17 02:55:17;;;;;;;1.47;1.27;;;;;;;13.91;68.16;101189.05;5154046;56;1139008;-72
2022/06/17 03:00:24;;;;;;;1.63;1.53;;;;;;;13.95;68.52;101187.36;5207560;56;1138958;-72
2022/06/17 03:05:35;;;;;;;1.73;1.20;;;;;;;13.88;68.50;101188.00;5168917;56;1139126;-71
2022/06/17 03:10:43;;;;;;;3.22;1.60;;;;;;;13.85;69.00;101186.42;5231358;55;1139346;-72
2022/06/17 03:15:53;;;;;;;3.50;1.77;;;;;;;13.88;69.39;101193.31;5307267;55;1139343;-73
2022/06/17 03:21:00;;;;;;;1.60;1.50;;;;;;;13.85;69.88;101192.22;5157784;56;1139101;-71
2022/06/17 03:26:16;;;;;;;5.00;1.53;;;;;;;13.78;70.32;101193.19;5068431;57;1138924;-72
2022/06/17 03:31:41;;;;;;;5.27;1.37;;;;;;;13.76;70.80;101198.26;5138648;56;1139104;-74
2022/06/17 03:36:55;;;;;;;3.37;1.87;;;;;;;13.71;71.24;101202.64;5058070;58;1139256;-71
2022/06/17 03:42:20;;;;;;;4.37;1.97;;;;;;;13.69;72.15;101210.73;4984941;58;1137222;-72
2022/06/17 03:48:01;;;;;;;5.33;1.73;;;;;;;13.71;72.68;101216.78;4970764;59;1137113;-73
2022/06/17 03:53:25;;;;;;;12.67;1.80;;;;;;;13.78;73.01;101216.27;4940819;59;1137015;-73
2022/06/17 03:58:32;;;;;;;8.30;2.07;;;;;;;13.84;73.37;101222.44;4972317;59;1136459;-73
2022/06/17 04:03:43;;;;;;;7.45;1.65;;;;;;;13.92;73.63;101218.66;4972039;59;1134814;-73
2022/06/17 04:09:05;;;;;;;4.50;2.20;;;;;;;14.04;73.83;101227.86;4972364;59;1139034;-71
2022/06/17 04:14:37;;;;;;;5.73;1.90;;;;;;;14.08;74.27;101233.75;5164873;56;1138969;-69
2022/06/17 04:19:46;;;;;;;5.67;1.63;;;;;;;14.14;74.58;101232.42;5219438;56;1139002;-71
2022/06/17 04:24:57;;;;;;;2.43;1.43;;;;;;;14.15;75.55;101237.63;5202651;56;1138969;-72
2022/06/17 04:30:06;;;;;;;1.50;1.33;;;;;;;14.16;75.65;101233.14;5141252;57;1139053;-71
2022/06/17 04:35:15;;;;;;;1.63;1.53;;;;;;;14.14;77.77;101227.09;5077367;57;1139092;-72
2022/06/17 04:40:46;;;;;;;1.43;1.33;;;;;;;14.05;78.54;101222.05;5065611;57;1138991;-72
2022/06/17 04:46:13;;;;;;;3.03;2.10;;;;;;;14.07;79.06;101232.05;5207608;56;1138952;-72
2022/06/17 04:51:20;;;;;;;3.67;2.23;;;;;;;14.10;79.26;101225.16;5228051;56;1138954;-72
2022/06/17 04:56:34;;;;;;;3.03;1.80;;;;;;;14.21;79.80;101229.12;5211187;56;1139020;-73
2022/06/17 05:01:46;;;;;;;2.07;1.87;;;;;;;14.37;80.25;101226.05;5211548;56;1138992;-72
2022/06/17 05:06:54;;;;;;;2.47;1.90;;;;;;;14.53;80.45;101219.85;5210581;56;1138992;-72
2022/06/17 05:12:06;;;;;;;5.77;2.57;;;;;;;14.72;80.93;101223.17;5175967;56;1139181;-70
2022/06/17 05:17:13;;;;;;;;;;;;;;;14.83;80.86;101218.27;5098562;56;1138998;-73
2022/06/17 05:22:38;;;;;;;7.47;2.27;;;;;;;14.95;80.82;101218.09;5094757;56;974232;-71
2022/06/17 05:27:45;;;;;;;9.67;2.23;;;;;;;15.11;80.92;101206.98;5102760;57;1134728;-73
2022/06/17 05:32:54;;;;;;;9.63;2.57;;;;;;;15.27;81.93;101209.17;5135697;57;1136963;-73
2022/06/17 05:38:02;;;;;;;5.40;2.70;;;;;;;15.41;81.48;101207.00;5190072;56;1136883;-73
2022/06/17 05:43:12;;;;;;;6.93;2.07;;;;;;;15.68;81.13;101205.09;5186346;56;1136823;-72
2022/06/17 05:48:28;;;;;;;5.97;2.20;;;;;;;16.01;81.23;101209.75;5144720;56;1136941;-73
2022/06/17 05:53:38;;;;;;;6.13;2.67;;;;;;;16.34;80.52;101204.54;5130081;57;1136961;-73
2022/06/17 05:58:57;;;;;;;3.87;1.90;;;;;;;16.46;79.98;101203.41;5130685;57;1135090;-74
2022/06/17 06:04:06;;;;;;;4.53;2.47;;;;;;;16.71;80.10;101207.36;5131553;57;1134971;-75
2022/06/17 06:09:12;;;;;;;7.37;2.80;;;;;;;16.83;79.73;101212.41;5206197;56;1138854;-74
2022/06/17 06:14:21;;;;;;;8.60;3.07;;;;;;;16.96;79.91;101210.77;5159940;56;1138970;-76
2022/06/17 06:19:27;;;;;;;4.37;2.17;;;;;;;17.13;79.29;101218.55;5218311;56;1138893;-74
2022/06/17 06:24:33;;;;;;;4.43;2.47;;;;;;;17.33;79.66;101217.52;5216951;56;1139227;-72
2022/06/17 06:29:39;;;;;;;5.17;2.40;;;;;;;17.58;79.12;101224.88;5161352;56;1138983;-72
2022/06/17 06:34:46;;;;;;;3.43;2.20;;;;;;;17.87;78.81;101225.30;5175054;56;1139222;-72
2022/06/17 06:39:53;;;;;;;5.60;2.13;;;;;;;18.06;77.17;101238.55;5218739;56;1139558;-73
2022/06/17 06:44:59;;;;;;;7.87;2.37;;;;;;;18.16;76.01;101231.31;5235237;56;1139217;-72
2022/06/17 06:50:10;;;;;;;9.57;2.07;;;;;;;18.27;76.21;101240.47;5210158;56;1138928;-72
2022/06/17 06:55:15;;;;;;;5.23;1.77;;;;;;;18.45;75.79;101236.97;5156228;57;1139349;-72
2022/06/17 07:00:26;;;;;;;9.20;1.67;;;;;;;18.62;74.36;101250.90;5155140;57;1139252;-72
2022/06/17 07:05:34;;;;;;;5.23;1.87;;;;;;;18.72;74.86;101255.67;5091540;57;1138854;-76
2022/06/17 07:10:40;;;;;;;4.05;1.47;;;;;;;18.88;74.62;101253.63;5079090;57;1138969;-74
2022/06/17 07:15:47;;;;;;;3.57;1.60;;;;;;;19.01;72.46;101256.75;5042942;58;1139016;-72
2022/06/17 07:20:58;;;;;;;4.13;1.57;;;;;;;19.25;72.84;101260.09;5126475;56;1139103;-73
2022/06/17 07:26:11;;;;;;;7.37;1.72;;;;;;;19.58;69.83;101255.81;5270143;55;1139243;-71
2022/06/17 07:31:17;;;;;;;7.20;1.65;;;;;;;19.51;69.85;101252.94;5219144;56;1139016;-73
2022/06/17 07:41:50;;;;;;;2.77;1.62;;;;;;;20.16;69.54;101272.53;5156135;56;1141106;-72
2022/06/17 07:46:58;;;;;;;4.50;1.50;;;;;;;20.34;67.14;101266.52;5182792;56;1139203;-71
2022/06/17 07:52:04;;;;;;;3.52;1.45;;;;;;;20.34;65.23;101268.70;5183647;56;1138973;-73
2022/06/17 07:57:13;;;;;;;3.10;1.50;;;;;;;20.29;66.98;101276.94;5176989;56;1139120;-71
2022/06/17 08:02:19;;;;;;;6.83;1.98;;;;;;;20.29;65.17;101272.91;5212032;56;1139014;-74
2022/06/17 08:07:27;;;;;;;9.64;1.58;;;;;;;20.25;64.90;101284.98;5214512;55;1139007;-72
2022/06/17 08:12:34;;;;;;;7.08;1.60;;;;;;;19.98;64.15;101284.72;5130211;57;1138980;-74
2022/06/17 08:17:42;;;;;;;5.08;2.17;;;;;;;19.92;65.59;101283.50;5035791;58;1139236;-73
2022/06/17 08:22:48;;;;;;;4.83;1.67;;;;;;;19.99;65.54;101283.72;5195672;56;1139058;-74
2022/06/17 08:27:57;;;;;;;2.70;1.90;;;;;;;19.86;65.49;101285.48;5159823;56;1139223;-74
2022/06/17 08:33:03;;;;;;;4.10;1.72;;;;;;;20.07;64.79;101294.48;5140754;57;1136920;-73
2022/06/17 08:38:20;;;;;;;4.35;1.87;;;;;;;19.96;66.54;101286.22;5173242;56;1137054;-73
2022/06/17 08:43:55;;;;;;;6.92;1.40;;;;;;;20.04;65.78;101289.42;5166649;56;1136946;-75
2022/06/17 08:49:34;;;;;;;4.60;2.08;;;;;;;20.33;65.25;101291.20;5186615;56;1136943;-74
2022/06/17 08:55:14;;;;;;;2.37;1.40;;;;;;;20.22;64.10;101294.70;5181537;56;1134220;-74
2022/06/17 09:00:24;;;;;;;6.37;1.90;;;;;;;20.31;65.26;101312.55;5129413;57;1138972;-75
2022/06/17 09:05:40;;;;;;;3.33;2.10;;;;;;;20.66;64.79;101301.56;5047044;57;1139420;-73
2022/06/17 09:10:57;;;;;;;5.50;2.00;;;;;;;20.69;64.00;101300.39;5162377;57;1138965;-73
2022/06/17 09:16:13;;;;;;;3.27;1.02;;;;;;;20.81;64.64;101300.91;5175588;55;1138851;-73
2022/06/17 09:21:26;;;;;;;5.35;1.60;;;;;;;21.00;61.24;101287.98;5241392;55;1139073;-72
2022/06/17 09:26:41;;;;;;;2.92;1.35;;;;;;;21.06;59.77;101305.31;5230947;55;1138936;-74
2022/06/17 09:31:54;;;;;;;2.83;1.10;;;;;;;21.25;59.64;101310.36;5215216;56;1138975;-73
2022/06/17 09:37:04;;;;;;;2.27;1.22;;;;;;;21.34;59.68;101311.22;5239786;55;1139117;-74
2022/06/17 09:42:17;;;;;;;1.17;1.15;;;;;;;21.37;58.11;101313.58;5208533;56;1139400;-73
2022/06/17 09:47:27;;;;;;;2.20;1.02;;;;;;;21.61;59.06;101309.48;5124352;56;1139261;-74
2022/06/17 09:52:38;;;;;;;4.75;0.98;;;;;;;22.12;54.74;101312.73;5221667;55;1139193;-74
2022/06/17 09:58:05;;;;;;;6.95;1.07;;;;;;;22.46;52.77;101309.67;5225939;56;1139033;-74
2022/06/17 10:03:29;;;;;;;4.70;1.25;;;;;;;22.68;54.04;101299.95;5187902;56;1139075;-75
2022/06/17 10:09:02;;;;;;;9.08;1.22;;;;;;;23.15;55.33;101307.88;5221043;56;1136892;-73
2022/06/17 10:14:30;;;;;;;3.23;0.80;;;;;;;23.60;53.19;101304.28;5220363;56;1137199;-72
2022/06/17 10:20:08;;;;;;;1.87;0.78;;;;;;;24.05;52.74;101299.20;5219038;56;1136849;-75
2022/06/17 10:25:35;;;;;;;2.70;0.90;;;;;;;23.92;51.50;101303.08;5167031;56;1139064;-76
2022/06/17 10:30:59;;;;;;;6.85;0.85;;;;;;;24.04;52.10;101302.09;5113479;57;1139074;-76
2022/06/17 10:36:07;;;;;;;1.55;1.02;;;;;;;24.31;52.08;101300.06;5235181;56;1139091;-78
2022/06/17 10:41:13;;;;;;;1.85;0.85;;;;;;;24.38;48.35;101305.56;5201042;56;1139502;-75
2022/06/17 10:46:25;;;;;;;4.67;1.07;;;;;;;24.31;48.81;101313.59;5235563;56;1139230;-75
2022/06/17 10:51:33;;;;;;;4.97;1.20;;;;;;;24.27;47.34;101302.84;5236499;56;1138978;-77
2022/06/17 10:56:46;;;;;;;1.62;0.88;;;;;;;24.21;48.27;101307.61;5235967;56;1139040;-76
2022/06/17 11:01:58;;;;;;;1.80;1.00;;;;;;;24.26;49.02;101311.14;5238093;56;1138943;-76
2022/06/17 11:07:15;;;;;;;3.03;0.70;;;;;;;24.33;47.65;101298.53;5222395;56;1139058;-76
2022/06/17 11:12:26;;;;;;;6.53;1.10;;;;;;;24.67;48.38;101303.29;5222040;56;1138974;-77
2022/06/17 11:17:43;;;;;;;2.10;0.80;;;;;;;24.79;47.36;101301.74;5222395;56;1139013;-77
2022/06/17 11:23:02;;;;;;;4.12;1.00;;;;;;;24.99;46.81;101302.81;5221981;56;1138985;-76
2022/06/17 11:28:26;;;;;;;1.32;0.70;;;;;;;25.01;45.67;101296.69;5222133;56;1138943;-76
2022/06/17 11:33:38;;;;;;;3.08;1.00;;;;;;;25.19;43.95;101288.11;5221879;56;1139222;-77
2022/06/17 11:38:45;;;;;;;2.27;0.95;;;;;;;25.45;46.28;101282.88;5307147;55;1136907;-78
2022/06/17 11:43:53;;;;;;;2.42;0.78;;;;;;;25.36;42.58;101277.28;5249666;55;1136920;-75
2022/06/17 11:49:15;;;;;;;5.70;1.12;;;;;;;25.14;43.39;101269.73;5220178;55;1137241;-75
2022/06/17 11:54:54;;;;;;;4.53;0.70;;;;;;;25.13;41.11;101274.83;5202268;56;1137353;-76
2022/06/17 12:00:04;;;;;;;0.95;0.70;;;;;;;25.50;43.09;101268.75;5242635;55;1136895;-75
2022/06/17 12:05:21;;;;;;;1.05;0.85;;;;;;;25.69;40.47;101259.92;5263128;55;1134735;-76
2022/06/17 12:10:46;;;;;;;2.00;1.10;;;;;;;25.43;41.82;101261.92;5235436;56;1139161;-76
2022/06/17 12:15:56;;;;;;;2.37;0.90;;;;;;;25.24;43.83;101252.62;5219339;55;1138987;-76
2022/06/17 12:21:32;;;;;;;2.62;0.75;;;;;;;25.41;42.73;101256.38;5240871;55;1139443;-77
2022/06/17 12:27:18;;;;;;;2.77;1.15;;;;;;;25.53;42.40;101253.43;5229173;56;1139282;-77
2022/06/17 12:32:51;;;;;;;3.58;1.07;;;;;;;25.65;41.33;101251.05;5219674;56;1139004;-77
2022/06/17 12:38:10;;;;;;;2.62;0.98;;;;;;;25.73;41.72;101247.66;5290840;55;1138863;-77
2022/06/17 12:43:43;;;;;;;2.45;0.60;;;;;;;25.80;42.08;101244.47;5253188;55;1138990;-75
2022/06/17 12:54:59;;;;;;;2.65;1.02;;;;;;;26.18;40.72;101241.27;5249254;55;1137396;-76
2022/06/17 13:00:10;;;;;;;2.60;0.93;;;;;;;26.35;40.75;101243.13;5251845;55;1137199;-76
2022/06/17 13:05:26;;;;;;;1.52;1.00;;;;;;;26.32;40.06;101242.17;5251653;55;1136936;-77
2022/06/17 13:10:51;;;;;;;1.50;1.07;;;;;;;26.36;41.34;101239.38;5242602;55;1134876;-76
2022/06/17 13:16:02;;;;;;;1.70;0.90;;;;;;;26.52;41.89;101243.07;5213069;56;1138994;-75
2022/06/17 13:21:24;;;;;;;6.97;0.93;;;;;;;26.65;39.05;101236.82;5214669;56;1138978;-75
2022/06/17 13:27:04;;;;;;;0.95;0.70;;;;;;;26.53;40.08;101221.69;5218264;56;1138923;-75
2022/06/17 13:32:20;;;;;;;1.65;1.10;;;;;;;26.69;37.99;101217.73;5218075;56;1138985;-75
2022/06/17 13:37:40;;;;;;;2.70;0.80;;;;;;;26.69;37.73;101217.22;5215876;55;1138949;-76
2022/06/17 13:42:48;;;;;;;5.10;1.82;;;;;;;26.82;39.61;101215.86;5225811;55;1139009;-76
2022/06/17 13:48:09;;;;;;;1.42;1.07;;;;;;;27.22;39.96;101213.14;5306407;55;1139231;-76
2022/06/17 13:53:28;;;;;;;1.47;0.98;;;;;;;27.22;39.96;101213.14;5286599;55;1138926;-76
2022/06/17 13:58:59;;;;;;;8.85;2.10;;;;;;;27.37;36.87;101208.83;5255585;55;1138814;-76
2022/06/17 14:04:10;;;;;;;11.38;1.40;;;;;;;27.47;39.35;101217.39;5306728;55;1136926;-76
2022/06/17 14:09:40;;;;;;;0.98;0.98;;;;;;;27.41;36.67;101215.52;5233144;55;1138964;-77
2022/06/17 14:14:49;;;;;;;0.90;0.90;;;;;;;27.44;39.13;101211.02;5251037;55;1136969;-76
2022/06/17 14:20:01;;;;;;;1.98;1.35;;;;;;;27.49;36.53;101218.02;5250255;55;1136987;-76
2022/06/17 14:25:18;;;;;;;6.08;1.47;;;;;;;27.20;36.49;101206.55;5240683;55;1137097;-69
2022/06/17 14:30:35;;;;;;;1.70;0.90;;;;;;;27.05;36.87;101202.39;5243355;56;1136982;-73
2022/06/17 14:35:54;;;;;;;5.58;1.22;;;;;;;27.08;36.12;101206.05;5260328;55;1137032;-73
2022/06/17 14:47:39;;;;;;;0.82;0.80;;;;;;;27.17;36.70;101199.37;5306469;55;1141138;-74
2022/06/17 14:52:37;;;;;;;1.22;0.85;;;;;;;27.19;36.42;101191.86;5287394;55;1138974;-74
2022/06/17 14:58:02;;;;;;;3.62;0.90;;;;;;;27.22;35.63;101196.84;5241960;55;1139027;-75
2022/06/17 15:03:34;;;;;;;1.72;1.10;;;;;;;27.22;35.72;101188.69;5235799;55;1138945;-74
2022/06/17 15:08:45;;;;;;;3.20;0.80;;;;;;;27.24;35.85;101205.62;5230543;55;1138955;-74
2022/06/17 15:14:10;;;;;;;1.70;1.15;;;;;;;27.15;36.24;101204.19;5288565;55;1139172;-74
2022/06/17 15:19:41;;;;;;;1.62;0.90;;;;;;;27.14;35.51;101191.65;5308303;55;1139240;-74
2022/06/17 15:25:03;;;;;;;1.42;1.20;;;;;;;27.13;35.58;101192.17;5102111;56;1137114;-74
2022/06/17 15:30:28;;;;;;;3.98;1.00;;;;;;;27.13;37.01;101194.05;5124793;57;1137140;-74
2022/06/17 15:35:36;;;;;;;4.12;1.00;;;;;;;27.18;36.86;101188.30;5072087;57;1137071;-74
2022/06/17 15:40:44;;;;;;;2.67;0.88;;;;;;;27.14;35.58;101201.15;5066174;57;1136864;-75
2022/06/17 15:45:51;;;;;;;1.32;0.90;;;;;;;26.96;36.26;101190.41;5108171;57;1137279;-74
2022/06/17 15:51:04;;;;;;;1.02;0.80;;;;;;;26.80;36.20;101198.94;5102631;57;1135022;-75
2022/06/17 15:56:14;;;;;;;1.00;1.00;;;;;;;26.65;36.89;101195.59;5098686;57;1138906;-73
2022/06/17 16:01:35;;;;;;;3.13;0.87;;;;;;;26.61;36.70;101192.98;5207395;55;1138918;-74
2022/06/17 16:06:44;;;;;;;2.33;0.85;;;;;;;26.59;36.43;101187.75;5225686;55;1138941;-73
2022/06/17 16:11:50;;;;;;;2.83;0.80;;;;;;;26.69;36.76;101193.31;5259623;55;1138973;-74
2022/06/17 16:17:03;;;;;;;7.28;0.88;;;;;;;26.66;36.77;101194.56;5218307;56;1138914;-75
2022/06/17 16:22:11;;;;;;;1.07;0.98;;;;;;;26.53;37.28;101194.55;5217943;56;1139090;-75
2022/06/17 16:27:25;;;;;;;1.87;1.20;;;;;;;26.44;36.79;101195.77;5191680;55;1138973;-75
2022/06/17 16:32:36;;;;;;;4.65;0.98;;;;;;;26.20;37.46;101198.00;5251428;55;1139012;-75
2022/06/17 16:37:47;;;;;;;0.82;0.82;;;;;;;26.03;38.08;101197.22;5215860;55;1139115;-75
2022/06/17 16:48:18;;;;;;;1.25;0.78;;;;;;;25.76;38.78;101207.97;5235623;55;1138999;-74
2022/06/17 16:53:25;;;;;;;4.17;1.17;;;;;;;25.69;39.43;101208.95;5276868;55;1138847;-75
2022/06/17 16:58:38;;;;;;;1.77;1.12;;;;;;;25.66;39.32;101206.67;5232791;55;1138871;-75
2022/06/17 17:03:55;;;;;;;2.98;1.00;;;;;;;25.69;40.06;101211.15;5234450;55;1138962;-74
2022/06/17 17:09:01;;;;;;;2.02;1.05;;;;;;;25.65;39.33;101206.36;5269147;55;1138833;-74
2022/06/17 17:14:13;;;;;;;1.22;1.02;;;;;;;25.48;39.08;101210.72;5262852;55;1138820;-75
2022/06/17 17:19:21;;;;;;;3.33;0.98;;;;;;;25.37;39.35;101214.47;5278367;55;1138896;-75
2022/06/17 17:24:34;;;;;;;0.82;0.80;;;;;;;25.25;39.99;101202.02;5228107;55;1138210;-75
2022/06/17 17:29:49;;;;;;;1.15;0.72;;;;;;;25.33;39.92;101214.06;5253483;55;1138839;-76
2022/06/17 17:35:12;;;;;;;3.77;1.20;;;;;;;25.21;39.98;101206.14;5237958;55;1136847;-74
2022/06/17 17:40:22;;;;;;;4.90;1.27;;;;;;;25.16;40.70;101212.17;5253377;56;1136881;-74
2022/06/17 17:45:39;;;;;;;16.93;2.67;;;;;;;25.16;41.69;101224.36;5299872;55;1137035;-73
2022/06/17 17:50:47;;;;;;;6.58;0.95;;;;;;;25.23;42.45;101222.52;5232471;55;1138967;-72
2022/06/17 17:55:53;;;;;;;2.52;1.22;;;;;;;25.17;42.60;101224.67;5252339;55;1136921;-74
2022/06/17 18:00:59;;;;;;;2.75;1.12;;;;;;;25.02;42.78;101223.94;5254926;55;1136871;-74
2022/06/17 18:06:05;;;;;;;1.35;0.95;;;;;;;24.91;43.04;101233.89;5229854;55;1137119;-75
2022/06/17 18:11:15;;;;;;;4.95;1.30;;;;;;;24.85;43.43;101223.86;5217300;55;1137011;-74
2022/06/17 18:16:22;;;;;;;1.30;1.20;;;;;;;24.84;44.00;101226.25;5252589;55;1136984;-74
2022/06/17 18:21:29;;;;;;;4.00;1.62;;;;;;;24.81;43.83;101233.39;5216635;55;1135050;-74
2022/06/17 18:26:40;;;;;;;4.28;1.80;;;;;;;24.80;43.90;101235.78;5247632;55;1134901;-74
2022/06/17 18:31:50;;;;;;;1.43;1.00;;;;;;;24.77;44.25;101235.64;5235695;55;1139086;-74
2022/06/17 18:36:55;;;;;;;1.65;1.32;;;;;;;24.67;44.27;101235.14;5275138;55;1139229;-74
2022/06/17 18:47:28;;;;;;;12.45;1.50;;;;;;;24.48;44.72;101234.42;5225773;56;1139167;-74
2022/06/17 18:52:45;;;;;;;3.95;1.60;;;;;;;24.39;45.08;101234.23;5287804;55;1141022;-75
2022/06/17 18:57:53;;;;;;;2.65;1.62;;;;;;;24.20;45.25;101239.20;5292586;55;1139251;-73
2022/06/17 19:03:09;;;;;;;3.25;1.47;;;;;;;24.08;45.69;101239.88;5271785;55;1138942;-74
2022/06/17 19:19:12;;;;;;;1.75;1.50;;;;;;;23.84;46.22;101254.02;5233121;55;1138968;-74
2022/06/17 19:24:17;;;;;;;7.42;2.65;;;;;;;23.81;46.96;101254.42;5280079;55;1139240;-73
2022/06/17 19:29:27;;;;;;;8.68;4.00;;;;;;;23.89;47.31;101266.13;5230394;55;1139218;-74
2022/06/17 19:34:34;;;;;;;10.28;3.65;;;;;;;23.97;47.61;101266.05;5259726;55;1138912;-74
2022/06/17 19:39:46;;;;;;;23.52;8.18;;;;;;;23.91;47.07;101266.79;5286588;55;1141109;-73
2022/06/17 19:44:51;;;;;;;14.45;7.12;;;;;;;23.70;47.06;101268.38;5252361;55;1140984;-74
2022/06/17 19:49:59;;;;;;;37.70;21.17;;;;;;;23.47;47.37;101280.59;5243010;55;1141016;-72
2022/06/17 19:55:09;;;;;;;24.05;12.10;;;;;;;23.21;47.86;101278.83;5218961;56;1143241;-72
2022/06/17 20:00:17;;;;;;;10.55;3.98;;;;;;;23.16;48.78;101282.58;5221081;56;1143550;-72
2022/06/17 20:05:30;;;;;;;9.23;5.33;;;;;;;23.23;49.88;101279.45;5231486;55;1138974;-74
2022/06/17 20:10:36;;;;;;;24.50;9.33;;;;;;;23.26;50.33;101287.70;5227329;55;1136989;-73
2022/06/17 20:15:42;;;;;;;43.00;17.17;;;;;;;23.24;50.67;101278.95;5239310;55;1138945;-72
2022/06/17 20:20:49;;;;;;;25.90;9.60;;;;;;;23.02;50.16;101291.47;5243795;55;1141174;-72
2022/06/17 20:25:55;;;;;;;28.07;7.15;;;;;;;22.83;50.49;101299.54;5251832;55;1138983;-73
2022/06/17 20:31:01;;;;;;;17.92;6.10;;;;;;;22.85;50.92;101299.36;5306603;55;1139379;-74
2022/06/17 20:36:12;;;;;;;35.17;7.03;;;;;;;22.86;50.98;101295.64;5254282;55;1138969;-73
2022/06/17 20:41:15;;;;;;;53.98;8.40;;;;;;;22.89;50.99;101301.53;5222588;55;1139110;-73
2022/06/17 20:51:48;;;;;;;23.95;6.47;;;;;;;22.82;51.31;101297.86;5229775;55;1140456;-73
2022/06/17 21:02:18;;;;;;;14.53;7.83;;;;;;;22.67;52.00;101296.92;5241975;55;1141434;-74
2022/06/17 21:07:25;;;;;;;18.92;7.20;;;;;;;22.52;52.28;101289.27;5230775;55;1140966;-73
2022/06/17 21:12:37;;;;;;;21.57;8.55;;;;;;;22.40;52.78;101291.53;5223863;55;1140973;-73
2022/06/17 21:17:46;;;;;;;45.52;21.75;;;;;;;22.21;53.56;101288.77;5242038;55;1140961;-74
2022/06/17 21:22:52;;;;;;;139.88;67.80;;;;;;;22.11;53.98;101282.77;5231714;55;1143136;-73
2022/06/17 21:27:58;;;;;;;27.02;9.95;;;;;;;22.03;54.24;101286.31;5217138;55;1145319;-73
2022/06/17 21:33:06;;;;;;;19.55;8.70;;;;;;;21.99;54.72;101285.01;5222285;55;1141041;-74
2022/06/17 21:38:35;;;;;;;17.82;8.15;;;;;;;21.94;55.17;101276.56;5223551;55;1141578;-73
2022/06/17 21:43:41;;;;;;;125.15;68.22;;;;;;;21.77;55.47;101276.29;5169091;56;1141268;-71
2022/06/17 21:48:51;;;;;;;100.50;51.60;;;;;;;21.63;55.80;101271.12;5140543;57;1145156;-74
2022/06/17 21:53:57;;;;;;;17.62;7.28;;;;;;;21.58;56.22;101273.98;5117574;57;1145185;-72
2022/06/17 21:59:05;;;;;;;6.33;4.00;;;;;;;21.53;56.71;101267.80;5143389;57;1141167;-72
2022/06/17 22:04:16;;;;;;;7.00;3.95;;;;;;;21.53;56.92;101263.75;5145597;56;1139184;-74
2022/06/17 22:09:26;;;;;;;9.15;5.00;;;;;;;21.49;57.13;101257.03;5234698;55;1139280;-73
2022/06/17 22:14:38;;;;;;;22.55;9.15;;;;;;;21.43;57.30;101255.52;5180496;55;1138966;-74
2022/06/17 22:19:45;;;;;;;14.07;8.57;;;;;;;21.22;57.40;101247.50;5137408;56;1141014;-73
2022/06/17 22:24:52;;;;;;;10.58;6.20;;;;;;;21.10;57.56;101248.80;5141972;57;1141155;-74
2022/06/17 22:29:59;;;;;;;37.50;24.18;;;;;;;21.06;57.84;101242.95;5141934;57;1141097;-73
2022/06/17 22:35:09;;;;;;;11.80;7.35;;;;;;;20.93;58.34;101240.44;5160439;56;1143163;-72
2022/06/17 22:40:19;;;;;;;42.78;24.75;;;;;;;20.86;58.89;101243.45;5164533;56;1140951;-74
2022/06/17 22:45:29;;;;;;;15.15;7.40;;;;;;;20.73;58.90;101247.98;5139757;56;1143428;-73
2022/06/17 22:50:39;;;;;;;23.10;10.75;;;;;;;20.68;59.23;101248.48;5020427;57;1141083;-74
2022/06/17 22:55:45;;;;;;;11.07;6.33;;;;;;;20.42;59.38;101242.41;5135192;56;1143164;-73
2022/06/17 23:00:53;;;;;;;21.75;11.95;;;;;;;20.23;60.42;101241.31;5142927;56;1141113;-73
2022/06/17 23:06:00;;;;;;;14.75;7.58;;;;;;;20.25;61.21;101239.31;5142909;57;1141099;-73
2022/06/17 23:11:06;;;;;;;10.58;5.25;;;;;;;20.28;61.36;101229.59;5142864;56;1139012;-74
2022/06/17 23:16:16;;;;;;;6.65;3.75;;;;;;;20.27;61.51;101234.12;5142921;56;1139671;-72
2022/06/17 23:21:30;;;;;;;98.92;59.73;;;;;;;20.25;61.79;101225.38;5228921;56;1136875;-73
2022/06/17 23:26:35;;;;;;;33.05;19.07;;;;;;;20.16;61.89;101225.03;5228597;56;1141289;-73
2022/06/17 23:31:45;;;;;;;55.20;39.08;;;;;;;20.07;62.14;101218.44;5228956;56;1141085;-74
2022/06/17 23:36:51;;;;;;;9.35;7.12;;;;;;;19.93;62.82;101223.44;5176519;56;1141156;-73
2022/06/17 23:41:57;;;;;;;35.10;30.20;;;;;;;19.82;63.30;101207.63;5143022;56;1137255;-73
2022/06/17 23:47:04;;;;;;;26.84;24.14;;;;;;;19.73;63.94;101205.90;5227845;56;1141408;-71
2022/06/17 23:52:28;;;;;;;15.88;11.97;;;;;;;19.67;64.11;101201.20;5152043;56;1141070;-73
2022/06/17 23:57:34;;;;;;;6.95;6.03;;;;;;;19.72;64.03;101200.69;5196405;56;1141152;-72
